Time;durP1;ratioP1;P1;durP2;ratioP2;P2;SDS_P1;SDS_P2;PMS_P1;PMS_P2;Temp;Humidity;BMP_temperature;BMP_pressure;BME280_temperature;BME280_humidity;BME280_pressure;Samples;Min_cycle;Max_cycle;Signal;HPM_P1;HPM_P2
2023/05/19 00:01:36;;;;;;;15.88;5.10;;;;;;;9.27;100.00;102177.03;5027145;28;20171;-75
2023/05/19 00:04:16;;;;;;;15.35;5.03;;;;;;;9.22;100.00;102182.94;5028522;28;20472;-76
2023/05/19 00:06:45;;;;;;;12.63;5.28;;;;;;;9.17;100.00;102180.47;5026285;28;20045;-74
2023/05/19 00:09:12;;;;;;;16.77;5.03;;;;;;;9.07;100.00;102179.13;5023080;28;20053;-73
2023/05/19 00:11:53;;;;;;;13.80;5.10;;;;;;;9.08;100.00;102174.38;5025024;28;20143;-76
2023/05/19 00:14:20;;;;;;;14.98;4.60;;;;;;;9.07;100.00;102178.31;5025818;28;20068;-73
2023/05/19 00:16:57;;;;;;;13.35;4.70;;;;;;;9.02;100.00;102181.41;5028191;28;20060;-75
2023/05/19 00:19:24;;;;;;;16.38;5.00;;;;;;;8.99;100.00;102190.47;5024389;28;20554;-73
2023/05/19 00:21:54;;;;;;;15.50;5.20;;;;;;;8.95;100.00;102186.84;5026959;28;20060;-75
2023/05/19 00:24:20;;;;;;;13.98;4.15;;;;;;;8.86;100.00;102180.75;5021671;28;20140;-74
2023/05/19 00:26:47;;;;;;;16.00;5.22;;;;;;;8.88;100.00;102193.06;5028175;28;20127;-75
2023/05/19 00:29:17;;;;;;;16.23;4.80;;;;;;;8.87;100.00;102197.00;5024647;28;20085;-75
2023/05/19 00:31:44;;;;;;;11.52;4.35;;;;;;;8.83;100.00;102190.63;5025500;28;20065;-73
2023/05/19 00:34:10;;;;;;;14.05;4.93;;;;;;;8.82;100.00;102194.56;5016795;28;20050;-75
2023/05/19 00:36:37;;;;;;;15.90;4.60;;;;;;;8.78;100.00;102196.44;5023388;28;20478;-78
2023/05/19 00:39:06;;;;;;;14.85;4.78;;;;;;;8.77;100.00;102196.81;5027420;28;20049;-72
2023/05/19 00:41:33;;;;;;;13.77;6.28;;;;;;;8.75;100.00;102196.41;5028798;28;20068;-73
2023/05/19 00:43:59;;;;;;;12.27;4.43;;;;;;;8.72;100.00;102191.59;5030039;28;20052;-73
2023/05/19 00:46:26;;;;;;;12.50;4.53;;;;;;;8.67;100.00;102195.47;5028129;28;20107;-73
2023/05/19 00:51:28;;;;;;;11.95;4.43;;;;;;;8.61;100.00;102194.16;5073720;23;20061;-72
2023/05/19 00:53:55;;;;;;;12.60;5.13;;;;;;;8.60;100.00;102191.72;4974460;28;20106;-72
2023/05/19 00:56:22;;;;;;;11.93;4.60;;;;;;;8.55;100.00;102186.50;4965740;28;20062;-73
2023/05/19 00:58:50;;;;;;;14.30;4.70;;;;;;;8.51;100.00;102188.41;4960166;28;20136;-71
2023/05/19 01:01:17;;;;;;;15.52;4.78;;;;;;;8.47;100.00;102182.78;4970558;28;20129;-74
2023/05/19 01:03:45;;;;;;;14.13;5.45;;;;;;;8.47;100.00;102188.34;4963146;28;20055;-73
2023/05/19 01:06:13;;;;;;;10.65;4.70;;;;;;;8.47;100.00;102187.56;4970631;28;20047;-72
2023/05/19 01:08:40;;;;;;;14.80;5.68;;;;;;;8.46;100.00;102186.75;4967991;28;20042;-73
2023/05/19 01:11:07;;;;;;;15.90;5.43;;;;;;;8.45;100.00;102187.09;4971115;28;20203;-72
2023/05/19 01:13:35;;;;;;;15.90;6.15;;;;;;;8.43;100.00;102183.91;4969531;28;20112;-74
2023/05/19 01:16:10;;;;;;;15.25;5.70;;;;;;;8.35;100.00;102182.16;4961930;28;20614;-73
2023/05/19 01:19:00;;;;;;;13.70;5.30;;;;;;;8.31;100.00;102184.06;4971782;28;20051;-72
2023/05/19 01:21:59;;;;;;;16.83;5.72;;;;;;;8.24;100.00;102181.16;4965633;28;20160;-72
2023/05/19 01:24:37;;;;;;;12.07;4.32;;;;;;;8.22;100.00;102175.19;4958881;28;20050;-70
2023/05/19 01:27:45;;;;;;;12.65;4.93;;;;;;;8.15;100.00;102175.06;4968768;28;20051;-70
2023/05/19 01:30:11;;;;;;;16.25;5.13;;;;;;;8.13;100.00;102182.94;4966730;28;20313;-70
2023/05/19 01:32:41;;;;;;;17.65;5.32;;;;;;;8.07;100.00;102173.31;4969043;28;20563;-71
2023/05/19 01:35:11;;;;;;;12.40;4.97;;;;;;;8.06;100.00;102178.03;4958569;28;20051;-70
2023/05/19 01:37:40;;;;;;;15.23;6.00;;;;;;;8.05;100.00;102172.88;4967956;28;20457;-69
2023/05/19 01:40:07;;;;;;;12.15;5.07;;;;;;;8.05;100.00;102175.63;4968132;28;20054;-71
2023/05/19 01:42:37;;;;;;;15.27;5.13;;;;;;;8.04;100.00;102171.28;4969815;28;20062;-69
2023/05/19 01:45:09;;;;;;;13.60;5.72;;;;;;;7.97;100.00;102169.16;4966945;28;20134;-69
2023/05/19 01:47:38;;;;;;;18.85;5.63;;;;;;;8.03;100.00;102178.00;4967964;28;20051;-69
2023/05/19 01:50:05;;;;;;;13.10;4.85;;;;;;;8.02;100.00;102182.72;4967456;28;20054;-70
2023/05/19 01:52:32;;;;;;;14.82;5.35;;;;;;;8.04;100.00;102185.13;4962135;28;20120;-70
2023/05/19 01:54:59;;;;;;;14.70;4.70;;;;;;;8.02;100.00;102182.72;4965246;28;20074;-68
2023/05/19 01:57:53;;;;;;;18.95;5.68;;;;;;;8.02;100.00;102190.22;4962999;28;20078;-69
2023/05/19 02:00:33;;;;;;;17.48;5.75;;;;;;;8.03;100.00;102186.28;4963124;28;20140;-69
2023/05/19 02:03:06;;;;;;;16.23;5.80;;;;;;;8.05;100.00;102189.47;4965593;28;20505;-68
2023/05/19 02:05:52;;;;;;;14.07;5.43;;;;;;;8.03;100.00;102187.06;4969249;28;20177;-69
2023/05/19 02:08:27;;;;;;;;;;;;;;;8.05;100.00;102189.47;4969617;28;20089;-69
2023/05/19 02:11:13;;;;;;;17.23;6.47;;;;;;;8.00;100.00;102189.78;4963964;28;20030;-70
2023/05/19 02:13:43;;;;;;;13.60;6.10;;;;;;;7.97;100.00;102190.53;4969605;28;20043;-69
2023/05/19 02:16:12;;;;;;;20.45;6.85;;;;;;;7.96;100.00;102188.91;4965126;28;20753;-69
2023/05/19 02:18:38;;;;;;;16.33;6.32;;;;;;;7.94;100.00;102182.94;4963662;28;20050;-70
2023/05/19 02:21:05;;;;;;;15.68;5.75;;;;;;;7.92;100.00;102179.72;4968523;28;20516;-70
2023/05/19 02:23:35;;;;;;;20.05;6.13;;;;;;;7.89;100.00;102189.56;4968907;28;20077;-70
2023/05/19 02:26:01;;;;;;;20.27;6.45;;;;;;;7.91;100.00;102183.66;4967407;28;20735;-70
2023/05/19 02:28:28;;;;;;;18.33;6.20;;;;;;;7.87;100.00;102185.56;4968698;28;20047;-70
2023/05/19 02:30:54;;;;;;;17.17;6.03;;;;;;;7.83;100.00;102190.22;4967636;28;20055;-70
2023/05/19 02:33:26;;;;;;;15.40;6.60;;;;;;;7.74;100.00;102187.66;4968984;28;20117;-70
2023/05/19 02:35:52;;;;;;;17.55;5.53;;;;;;;7.78;100.00;102187.72;4968746;28;20059;-70
2023/05/19 02:38:20;;;;;;;18.15;6.78;;;;;;;7.77;100.00;102189.72;4968891;28;20054;-70
2023/05/19 02:40:46;;;;;;;17.95;6.72;;;;;;;7.74;100.00;102184.09;4960284;28;20047;-70
2023/05/19 02:43:13;;;;;;;16.83;6.65;;;;;;;7.75;100.00;102182.91;4966572;28;20801;-69
2023/05/19 02:45:39;;;;;;;17.63;6.05;;;;;;;7.71;100.00;102176.50;4968103;28;20058;-69
2023/05/19 02:48:06;;;;;;;18.88;7.43;;;;;;;7.71;100.00;102176.50;4966645;28;20082;-69
2023/05/19 02:50:33;;;;;;;19.20;7.75;;;;;;;7.67;100.00;102176.44;4967254;28;20051;-68
2023/05/19 02:52:59;;;;;;;17.52;6.18;;;;;;;7.67;100.00;102175.63;4963615;28;20055;-69
2023/05/19 02:55:26;;;;;;;17.80;6.45;;;;;;;7.62;100.00;102165.66;4968196;28;20051;-70
2023/05/19 02:57:52;;;;;;;15.65;6.90;;;;;;;7.64;100.00;102165.28;4967070;28;20109;-71
2023/05/19 03:00:19;;;;;;;16.77;6.38;;;;;;;7.61;100.00;102166.00;4966336;28;20082;-68
2023/05/19 03:02:46;;;;;;;23.80;7.13;;;;;;;7.57;100.00;102163.97;4968339;28;20074;-71
2023/05/19 03:05:13;;;;;;;21.63;7.40;;;;;;;7.54;100.00;102161.13;4968605;28;20047;-69
2023/05/19 03:07:39;;;;;;;16.55;6.88;;;;;;;7.54;100.00;102163.91;4966670;28;20130;-70
2023/05/19 03:10:07;;;;;;;19.05;7.63;;;;;;;7.50;100.00;102165.78;4966142;28;20059;-71
2023/05/19 03:12:34;;;;;;;19.95;6.65;;;;;;;7.52;100.00;102170.97;4966075;28;20855;-69
2023/05/19 03:15:01;;;;;;;17.48;6.65;;;;;;;7.50;100.00;102165.78;4967546;28;20050;-70
2023/05/19 03:17:32;;;;;;;14.52;6.55;;;;;;;7.44;100.00;102168.00;4967227;28;20129;-70
2023/05/19 03:20:00;;;;;;;25.23;9.32;;;;;;;7.45;100.00;102169.63;4966016;28;20066;-69
2023/05/19 03:22:26;;;;;;;20.02;8.00;;;;;;;7.42;100.00;102175.88;4967380;28;20055;-68
2023/05/19 03:24:53;;;;;;;19.40;6.72;;;;;;;7.42;100.00;102177.84;4967799;28;20070;-65
2023/05/19 03:27:20;;;;;;;18.88;6.95;;;;;;;7.39;100.00;102170.25;4967879;28;20093;-70
2023/05/19 03:29:46;;;;;;;19.48;7.28;;;;;;;7.38;100.00;102172.25;4967364;28;20070;-69
2023/05/19 03:32:13;;;;;;;18.88;7.15;;;;;;;7.40;100.00;102172.66;4968075;28;20086;-68
2023/05/19 03:34:39;;;;;;;21.17;7.18;;;;;;;7.36;100.00;102176.50;4968037;28;20054;-69
2023/05/19 03:37:06;;;;;;;19.85;7.80;;;;;;;7.36;100.00;102171.78;4966863;28;20086;-70
2023/05/19 03:39:33;;;;;;;22.20;7.43;;;;;;;7.34;100.00;102176.91;4963265;28;20051;-71
2023/05/19 03:41:59;;;;;;;24.50;8.02;;;;;;;7.31;100.00;102172.09;4964396;28;20051;-68
2023/05/19 03:44:26;;;;;;;18.95;7.20;;;;;;;7.33;100.00;102180.03;4968122;28;20843;-68
2023/05/19 03:46:52;;;;;;;16.50;7.07;;;;;;;7.30;100.00;102184.28;4967878;28;20089;-71
2023/05/19 03:49:19;;;;;;;16.85;7.90;;;;;;;7.28;100.00;102181.09;4965271;28;20159;-68
2023/05/19 03:51:45;;;;;;;18.10;8.27;;;;;;;7.26;100.00;102183.41;4967423;28;20039;-68
2023/05/19 03:54:12;;;;;;;19.17;7.32;;;;;;;7.25;100.00;102181.81;4967406;28;20058;-70
2023/05/19 03:56:39;;;;;;;17.60;7.05;;;;;;;7.28;100.00;102178.34;4967863;28;20106;-69
2023/05/19 03:59:06;;;;;;;20.50;7.05;;;;;;;7.30;100.00;102180.75;4970696;28;20089;-69
2023/05/19 04:01:32;;;;;;;17.40;7.10;;;;;;;7.29;100.00;102179.13;4969675;28;20070;-69
2023/05/19 04:03:59;;;;;;;16.02;7.05;;;;;;;7.26;100.00;102186.19;4971254;28;20050;-68
2023/05/19 04:06:26;;;;;;;23.40;7.55;;;;;;;7.22;100.00;102188.06;4971171;28;20500;-69
2023/05/19 04:08:52;;;;;;;19.73;7.25;;;;;;;7.19;100.00;102182.44;4969234;28;20134;-69
2023/05/19 04:11:20;;;;;;;19.23;7.28;;;;;;;7.20;100.00;102184.06;4968461;28;20109;-70
2023/05/19 04:13:46;;;;;;;17.05;6.93;;;;;;;7.25;100.00;102181.00;4971361;28;20421;-71
2023/05/19 04:16:13;;;;;;;21.52;6.68;;;;;;;7.26;100.00;102188.94;4969697;28;20065;-69
2023/05/19 04:18:41;;;;;;;16.05;6.35;;;;;;;7.28;100.00;102186.63;4969668;28;20102;-69
2023/05/19 04:21:10;;;;;;;19.40;7.10;;;;;;;7.30;100.00;102192.59;4962264;28;20524;-71
2023/05/19 04:23:36;;;;;;;20.55;7.53;;;;;;;7.31;100.00;102198.94;4970751;28;20050;-69
2023/05/19 04:26:05;;;;;;;19.15;7.38;;;;;;;7.32;100.00;102193.06;4971186;28;20043;-69
2023/05/19 04:28:34;;;;;;;20.05;7.63;;;;;;;7.33;100.00;102200.19;4970663;28;20051;-68
2023/05/19 04:31:02;;;;;;;17.45;7.15;;;;;;;7.32;100.00;102197.78;4961899;28;20058;-69
2023/05/19 04:33:28;;;;;;;18.90;7.35;;;;;;;7.30;100.00;102194.59;4970277;28;20138;-70
2023/05/19 04:35:55;;;;;;;23.42;8.23;;;;;;;7.34;100.00;102204.56;4971968;28;20086;-69
2023/05/19 04:38:22;;;;;;;15.70;7.18;;;;;;;7.35;100.00;102200.63;4970345;28;20508;-70
2023/05/19 04:40:50;;;;;;;16.90;7.10;;;;;;;7.40;100.00;102200.34;4967618;28;20085;-70
2023/05/19 04:43:18;;;;;;;20.70;6.85;;;;;;;7.41;100.00;102196.44;4969732;28;20456;-69
2023/05/19 04:45:46;;;;;;;20.98;7.72;;;;;;;7.42;100.00;102199.97;4965117;28;20050;-69
2023/05/19 04:48:12;;;;;;;19.52;7.47;;;;;;;7.43;100.00;102199.63;4970057;28;20055;-70
2023/05/19 04:50:41;;;;;;;18.75;7.78;;;;;;;7.47;100.00;102203.28;4968010;28;20058;-69
2023/05/19 04:53:10;;;;;;;21.40;8.13;;;;;;;7.47;100.00;102194.97;4965373;28;20138;-69
2023/05/19 04:55:37;;;;;;;18.75;7.55;;;;;;;7.57;100.00;102199.94;4967605;28;20133;-70
2023/05/19 04:58:04;;;;;;;21.08;7.88;;;;;;;7.62;100.00;102204.41;4968843;28;20112;-69
2023/05/19 05:00:31;;;;;;;19.50;7.75;;;;;;;7.69;100.00;102209.31;4969762;28;20717;-68
2023/05/19 05:02:58;;;;;;;18.20;7.88;;;;;;;7.73;100.00;102196.34;4969647;28;20053;-69
2023/05/19 05:05:24;;;;;;;24.23;8.43;;;;;;;7.81;100.00;102209.16;4962931;28;20077;-70
2023/05/19 05:07:52;;;;;;;21.25;7.70;;;;;;;7.87;100.00;102202.19;4969451;28;20063;-70
2023/05/19 05:10:20;;;;;;;20.15;7.82;;;;;;;7.95;100.00;102212.22;4967398;28;20050;-69
2023/05/19 05:12:47;;;;;;;17.42;7.15;;;;;;;8.01;100.00;102202.47;4967441;28;20103;-69
2023/05/19 05:15:14;;;;;;;19.45;8.32;;;;;;;8.03;100.00;102200.16;4969766;28;20054;-69
2023/05/19 05:17:41;;;;;;;19.77;8.52;;;;;;;8.16;100.00;102212.66;4970480;28;20042;-70
2023/05/19 05:20:08;;;;;;;16.02;6.88;;;;;;;8.22;100.00;102197.34;4969045;28;20509;-71
2023/05/19 05:22:37;;;;;;;17.25;7.22;;;;;;;8.30;100.00;102204.66;4966733;28;20560;-69
2023/05/19 05:25:05;;;;;;;18.42;6.97;;;;;;;8.40;100.00;102212.34;4968565;28;20576;-70
2023/05/19 05:27:32;;;;;;;15.63;6.68;;;;;;;8.46;100.00;102208.09;4969114;28;20050;-69
2023/05/19 05:29:58;;;;;;;22.65;7.90;;;;;;;8.49;100.00;102210.16;4961525;28;20136;-70
2023/05/19 05:32:25;;;;;;;17.20;6.45;;;;;;;8.57;100.00;102203.56;4968590;28;20074;-69
2023/05/19 05:34:51;;;;;;;20.88;7.53;;;;;;;8.65;100.00;102202.56;4969746;28;20047;-70
2023/05/19 05:37:18;;;;;;;19.30;6.63;;;;;;;8.68;100.00;102202.63;4968748;28;20047;-70
2023/05/19 05:39:45;;;;;;;23.35;7.78;;;;;;;8.76;100.00;102201.59;4968991;28;20134;-71
2023/05/19 05:42:11;;;;;;;16.83;6.20;;;;;;;8.82;100.00;102202.88;4969735;28;20047;-67
2023/05/19 05:44:38;;;;;;;19.02;7.32;;;;;;;8.90;100.00;102201.00;4961030;28;20082;-69
2023/05/19 05:47:05;;;;;;;17.77;6.05;;;;;;;8.95;100.00;102203.50;4968910;28;20127;-69
2023/05/19 05:49:31;;;;;;;17.23;7.28;;;;;;;9.00;100.00;102200.41;4964709;28;20137;-69
2023/05/19 05:51:58;;;;;;;17.33;6.30;;;;;;;9.08;100.00;102197.38;4965172;28;20042;-70
2023/05/19 05:54:32;;;;;;;15.98;6.43;;;;;;;9.15;100.00;102202.25;4968113;28;20133;-70
2023/05/19 05:56:59;;;;;;;18.00;6.78;;;;;;;9.18;100.00;102190.38;4967280;28;20101;-69
2023/05/19 05:59:26;;;;;;;21.35;7.93;;;;;;;9.24;100.00;102192.47;4966730;28;20097;-70
2023/05/19 06:01:52;;;;;;;13.70;6.53;;;;;;;9.31;100.00;102200.91;4968655;28;20046;-68
2023/05/19 06:04:19;;;;;;;20.67;8.82;;;;;;;9.35;100.00;102196.22;4963701;28;20074;-70
2023/05/19 06:06:46;;;;;;;16.95;5.97;;;;;;;9.41;100.00;102189.16;4961357;28;20142;-70
2023/05/19 06:09:13;;;;;;;18.65;6.22;;;;;;;9.42;100.00;102181.66;4960583;28;20047;-70
2023/05/19 06:11:42;;;;;;;18.45;6.60;;;;;;;9.51;100.00;102188.53;4968915;28;20082;-68
2023/05/19 06:14:09;;;;;;;21.23;6.68;;;;;;;9.56;100.00;102190.19;4966424;28;20059;-71
2023/05/19 06:16:35;;;;;;;23.27;7.30;;;;;;;9.65;100.00;102179.56;4963117;28;20513;-69
2023/05/19 06:19:02;;;;;;;15.32;5.90;;;;;;;9.74;100.00;102180.09;4965678;28;20050;-69
2023/05/19 06:21:28;;;;;;;16.40;6.80;;;;;;;9.81;100.00;102169.88;4968099;28;20825;-68
2023/05/19 06:23:55;;;;;;;16.77;6.70;;;;;;;9.86;100.00;102175.09;4969077;28;20054;-69
2023/05/19 06:26:22;;;;;;;15.52;6.70;;;;;;;9.89;100.00;102171.56;4968455;28;20094;-69
2023/05/19 06:28:48;;;;;;;17.73;6.78;;;;;;;9.88;100.00;102169.97;4969056;28;20078;-69
2023/05/19 06:31:15;;;;;;;17.85;6.75;;;;;;;9.96;100.00;102170.84;4967055;28;20150;-70
2023/05/19 06:33:41;;;;;;;21.42;6.93;;;;;;;10.06;100.00;102174.97;4964238;28;20061;-71
2023/05/19 06:36:09;;;;;;;19.55;6.45;;;;;;;10.07;100.00;102183.72;4966743;28;20116;-69
2023/05/19 06:38:35;;;;;;;16.60;6.30;;;;;;;10.15;100.00;102181.81;4964316;28;20109;-69
2023/05/19 06:41:02;;;;;;;14.95;6.22;;;;;;;10.23;100.00;102180.72;4963713;28;20253;-69
2023/05/19 06:43:29;;;;;;;20.65;7.05;;;;;;;10.34;100.00;102183.63;4960488;28;20061;-70
2023/05/19 06:45:55;;;;;;;21.17;6.78;;;;;;;10.44;100.00;102183.75;4966948;28;20053;-70
2023/05/19 06:48:22;;;;;;;14.05;6.10;;;;;;;10.52;100.00;102188.19;4960498;28;20081;-71
2023/05/19 06:50:49;;;;;;;17.63;5.93;;;;;;;10.55;100.00;102187.44;4963006;28;20101;-71
2023/05/19 06:53:18;;;;;;;16.05;6.20;;;;;;;10.65;100.00;102172.84;4960242;28;20051;-70
2023/05/19 06:55:45;;;;;;;24.67;6.68;;;;;;;10.76;100.00;102175.69;4968901;28;20054;-71
2023/05/19 06:58:25;;;;;;;12.93;5.07;;;;;;;10.88;100.00;102180.97;4967505;28;20113;-70
2023/05/19 07:00:52;;;;;;;18.85;6.43;;;;;;;10.96;100.00;102177.88;4968452;28;20098;-70
2023/05/19 07:03:18;;;;;;;18.75;5.78;;;;;;;11.06;100.00;102185.50;4967362;28;20043;-71
2023/05/19 07:05:46;;;;;;;15.93;6.20;;;;;;;11.12;100.00;102180.38;4967100;28;20043;-70
2023/05/19 07:08:12;;;;;;;21.15;5.38;;;;;;;11.19;100.00;102177.66;4960495;28;20647;-70
2023/05/19 07:10:39;;;;;;;15.77;6.15;;;;;;;11.26;100.00;102175.75;4965381;28;20129;-71
2023/05/19 07:13:05;;;;;;;13.02;5.78;;;;;;;11.38;100.00;102175.41;4967134;28;20105;-70
2023/05/19 07:15:32;;;;;;;12.18;4.90;;;;;;;11.44;100.00;102176.66;4968064;28;20085;-70
2023/05/19 07:17:59;;;;;;;13.40;5.63;;;;;;;11.55;100.00;102179.53;4965207;28;20054;-69
2023/05/19 07:20:25;;;;;;;12.27;5.03;;;;;;;11.66;100.00;102175.59;4959026;28;20047;-66
2023/05/19 07:22:52;;;;;;;14.95;5.32;;;;;;;11.81;100.00;102182.03;4965541;28;20517;-68
2023/05/19 07:25:19;;;;;;;12.18;4.90;;;;;;;11.98;100.00;102181.31;4956022;28;20102;-68
2023/05/19 07:27:46;;;;;;;16.05;5.53;;;;;;;12.15;100.00;102181.38;4961790;28;20122;-68
2023/05/19 07:30:12;;;;;;;16.08;5.03;;;;;;;12.26;100.00;102179.41;4962202;28;20134;-68
2023/05/19 07:32:39;;;;;;;15.05;5.28;;;;;;;12.31;100.00;102175.44;4967363;28;20074;-67
2023/05/19 07:35:06;;;;;;;18.88;5.78;;;;;;;12.38;100.00;102173.50;4968957;28;20105;-67
2023/05/19 07:37:32;;;;;;;12.35;4.60;;;;;;;12.48;100.00;102176.72;4968238;28;20081;-70
2023/05/19 07:39:59;;;;;;;15.85;5.78;;;;;;;12.55;100.00;102173.94;4967937;28;20074;-70
2023/05/19 07:42:25;;;;;;;12.60;5.05;;;;;;;12.63;100.00;102179.16;4963299;28;20043;-67
2023/05/19 07:44:52;;;;;;;15.63;4.88;;;;;;;12.74;100.00;102173.56;4969656;28;20137;-71
2023/05/19 07:47:18;;;;;;;12.77;5.05;;;;;;;12.82;100.00;102177.97;4970125;28;20082;-71
2023/05/19 07:49:46;;;;;;;19.67;4.85;;;;;;;12.83;100.00;102168.38;4965485;28;20480;-71
2023/05/19 07:52:17;;;;;;;14.75;6.28;;;;;;;12.86;100.00;102173.19;4967912;28;20511;-69
2023/05/19 07:54:44;;;;;;;17.25;4.72;;;;;;;12.94;100.00;102170.00;4970435;28;20133;-68
2023/05/19 07:57:11;;;;;;;14.45;4.97;;;;;;;13.02;100.00;102163.19;4967115;28;20499;-68
2023/05/19 07:59:37;;;;;;;13.50;5.18;;;;;;;13.14;100.00;102164.78;4967012;28;20165;-70
2023/05/19 08:02:04;;;;;;;13.90;4.63;;;;;;;13.24;100.00;102167.56;4969163;28;20077;-69
2023/05/19 08:04:31;;;;;;;18.58;5.63;;;;;;;13.34;100.00;102163.97;4968308;28;20069;-73
2023/05/19 08:06:58;;;;;;;17.67;5.97;;;;;;;13.41;100.00;102161.16;4970259;28;20050;-68
2023/05/19 08:09:25;;;;;;;11.00;3.95;;;;;;;13.50;100.00;102155.19;4963173;28;20066;-69
2023/05/19 08:11:52;;;;;;;11.27;3.50;;;;;;;13.61;100.00;102158.75;4968939;28;20109;-69
2023/05/19 08:14:21;;;;;;;15.13;4.78;;;;;;;13.71;100.00;102150.31;4971441;28;20824;-69
2023/05/19 08:16:48;;;;;;;12.82;3.80;;;;;;;13.75;100.00;102150.31;4967762;28;20442;-69
2023/05/19 08:19:15;;;;;;;14.68;4.60;;;;;;;13.85;100.00;102153.06;4966578;28;20059;-70
2023/05/19 08:21:42;;;;;;;12.65;4.20;;;;;;;13.95;100.00;102152.22;4971057;28;20130;-69
2023/05/19 08:24:08;;;;;;;11.55;3.45;;;;;;;14.02;100.00;102154.19;4969453;28;20057;-69
2023/05/19 08:26:35;;;;;;;9.98;3.45;;;;;;;14.04;100.00;102146.97;4964039;28;20078;-68
2023/05/19 08:29:03;;;;;;;9.27;3.03;;;;;;;14.14;100.00;102143.31;4969458;28;20047;-71
2023/05/19 08:31:30;;;;;;;12.15;4.22;;;;;;;14.24;100.00;102136.88;4969244;28;20105;-69
2023/05/19 08:33:57;;;;;;;12.48;3.58;;;;;;;14.35;100.00;102129.19;4971125;28;20102;-68
2023/05/19 08:36:23;;;;;;;10.63;2.95;;;;;;;14.46;100.00;102135.56;4970710;28;20122;-70
2023/05/19 08:38:50;;;;;;;10.00;3.45;;;;;;;14.57;100.00;102127.09;4968769;28;20120;-68
2023/05/19 08:41:16;;;;;;;12.25;3.33;;;;;;;14.66;100.00;102128.19;4965408;28;20063;-67
2023/05/19 08:43:44;;;;;;;12.98;3.47;;;;;;;14.76;100.00;102118.16;4967904;28;20051;-69
2023/05/19 08:46:13;;;;;;;10.75;3.10;;;;;;;14.80;100.00;102118.91;4970057;28;20050;-69
2023/05/19 08:48:42;;;;;;;10.52;3.05;;;;;;;14.85;100.00;102118.44;4963735;28;20051;-70
2023/05/19 08:51:24;;;;;;;10.13;3.05;;;;;;;14.89;100.00;102120.00;4964718;28;20149;-70
2023/05/19 08:53:56;;;;;;;10.45;2.58;;;;;;;15.01;100.00;102118.72;4970256;28;20113;-69
2023/05/19 08:56:24;;;;;;;13.63;2.90;;;;;;;15.18;100.00;102112.13;4960912;28;20051;-69
2023/05/19 08:58:51;;;;;;;11.63;3.03;;;;;;;15.34;100.00;102111.56;4967669;28;20046;-69
2023/05/19 09:01:19;;;;;;;10.45;3.22;;;;;;;15.37;100.00;102117.19;4967398;28;20113;-68
2023/05/19 09:03:48;;;;;;;10.50;2.55;;;;;;;15.40;100.00;102107.94;4969680;28;20047;-68
2023/05/19 09:06:15;;;;;;;12.35;3.10;;;;;;;15.50;100.00;102107.03;4969407;28;20134;-69
2023/05/19 09:08:43;;;;;;;7.78;2.70;;;;;;;15.64;100.00;102092.84;4966877;28;20062;-69
2023/05/19 09:11:09;;;;;;;11.82;2.58;;;;;;;15.83;100.00;102094.19;4966368;28;20062;-71
2023/05/19 09:13:36;;;;;;;9.38;2.63;;;;;;;15.99;100.00;102100.75;4964273;28;20555;-70
2023/05/19 09:16:04;;;;;;;9.55;2.47;;;;;;;16.10;100.00;102098.59;4963619;28;20539;-73
2023/05/19 09:18:30;;;;;;;12.10;2.58;;;;;;;16.19;98.25;102092.47;4962677;28;20129;-70
2023/05/19 09:20:59;;;;;;;12.63;2.95;;;;;;;16.37;99.39;102087.44;4969189;28;20046;-71
2023/05/19 09:23:33;;;;;;;8.60;2.60;;;;;;;16.56;100.00;102097.94;4961983;28;20054;-71
2023/05/19 09:26:06;;;;;;;11.82;3.03;;;;;;;16.65;98.58;102093.34;4969048;28;20074;-72
2023/05/19 09:28:35;;;;;;;8.55;2.35;;;;;;;16.77;99.19;102092.75;4969748;28;20050;-73
2023/05/19 09:31:03;;;;;;;6.68;2.00;;;;;;;16.88;97.49;102087.75;4966321;28;20055;-72
2023/05/19 09:33:33;;;;;;;10.35;2.90;;;;;;;16.88;95.38;102084.16;4959017;28;20050;-72
2023/05/19 09:36:01;;;;;;;5.97;1.90;;;;;;;17.04;97.51;102082.25;4965457;28;20054;-73
2023/05/19 09:38:28;;;;;;;7.25;2.20;;;;;;;17.28;95.35;102091.44;4966000;28;20047;-72
2023/05/19 09:40:56;;;;;;;10.15;2.80;;;;;;;17.36;87.43;102087.28;4966406;28;20055;-68
2023/05/19 09:43:29;;;;;;;12.13;2.70;;;;;;;17.42;86.83;102089.16;4959243;28;20182;-69
2023/05/19 09:46:02;;;;;;;7.75;2.50;;;;;;;17.35;87.99;102082.88;4961862;28;20051;-70
2023/05/19 09:48:29;;;;;;;8.63;3.08;;;;;;;17.42;89.56;102084.75;4965399;28;20050;-70
2023/05/19 09:50:56;;;;;;;8.18;2.90;;;;;;;17.58;91.02;102080.00;4963542;28;20428;-69
2023/05/19 09:53:24;;;;;;;10.82;2.88;;;;;;;17.61;89.40;102072.72;4968340;28;20051;-68
2023/05/19 09:55:56;;;;;;;9.48;2.20;;;;;;;17.63;89.24;102068.25;4964628;28;20059;-71
2023/05/19 09:58:23;;;;;;;12.30;2.78;;;;;;;17.68;89.66;102067.72;4966513;28;20465;-68
2023/05/19 10:00:50;;;;;;;12.43;2.60;;;;;;;17.67;88.94;102066.16;4968882;28;20074;-70
2023/05/19 10:03:18;;;;;;;11.30;2.70;;;;;;;17.60;86.90;102060.69;4964146;28;20483;-69
2023/05/19 10:05:46;;;;;;;9.20;2.80;;;;;;;17.49;88.85;102053.69;4968448;28;20061;-69
2023/05/19 10:08:13;;;;;;;9.02;2.65;;;;;;;17.33;88.34;102058.03;4960069;28;20565;-70
2023/05/19 10:10:40;;;;;;;11.77;3.17;;;;;;;17.24;88.69;102057.78;4967590;28;20055;-69
2023/05/19 10:13:07;;;;;;;12.60;2.58;;;;;;;17.34;92.88;102050.38;4964437;28;20138;-72
2023/05/19 10:15:35;;;;;;;10.30;2.42;;;;;;;17.42;86.72;102045.41;4964422;28;20050;-69
2023/05/19 10:18:22;;;;;;;12.27;2.83;;;;;;;17.57;90.36;102043.88;4968294;28;20061;-70
2023/05/19 10:20:49;;;;;;;13.35;2.65;;;;;;;17.66;88.90;102038.47;4967617;28;20085;-71
2023/05/19 10:23:15;;;;;;;10.57;2.88;;;;;;;17.74;87.66;102039.88;4967792;28;20058;-70
2023/05/19 10:25:43;;;;;;;12.40;2.65;;;;;;;17.89;87.78;102035.53;4969240;28;20120;-70
2023/05/19 10:28:16;;;;;;;8.90;2.83;;;;;;;18.01;88.06;102038.50;4966647;28;20531;-72
2023/05/19 10:30:49;;;;;;;9.40;2.75;;;;;;;18.23;87.68;102042.38;4968521;28;20079;-71
2023/05/19 10:33:18;;;;;;;9.65;2.65;;;;;;;18.19;84.57;102043.72;4966739;28;20072;-70
2023/05/19 10:36:15;;;;;;;6.55;2.15;;;;;;;18.10;85.04;102032.25;4967619;28;20078;-70
2023/05/19 10:38:59;;;;;;;8.65;2.50;;;;;;;18.36;85.54;102036.84;4962350;28;20713;-70
2023/05/19 10:41:31;;;;;;;10.18;2.65;;;;;;;18.61;84.36;102040.63;4965956;28;20046;-70
2023/05/19 10:44:12;;;;;;;8.73;2.47;;;;;;;18.59;81.38;102031.00;4966090;28;20089;-69
2023/05/19 10:46:39;;;;;;;7.10;2.17;;;;;;;18.51;76.29;102026.81;4965120;28;20047;-69
2023/05/19 10:49:09;;;;;;;10.35;2.97;;;;;;;18.58;77.68;102021.00;4966868;28;20050;-69
2023/05/19 10:51:36;;;;;;;8.40;2.33;;;;;;;18.72;80.91;102009.34;4967250;28;20043;-69
2023/05/19 10:54:08;;;;;;;10.05;2.47;;;;;;;18.81;81.66;102018.78;4963379;28;20050;-71
2023/05/19 10:56:41;;;;;;;9.85;2.22;;;;;;;18.85;79.45;102019.50;4966868;28;20047;-69
2023/05/19 10:59:32;;;;;;;10.23;2.90;;;;;;;19.02;80.27;102028.69;4960969;28;20105;-69
2023/05/19 11:02:05;;;;;;;7.72;2.13;;;;;;;19.14;74.28;102025.91;4967689;28;20105;-70
2023/05/19 11:04:52;;;;;;;6.28;2.13;;;;;;;19.17;70.05;102027.06;4964886;28;20046;-72
2023/05/19 11:07:21;;;;;;;7.32;2.38;;;;;;;19.21;71.25;102017.25;4967998;28;20065;-71
2023/05/19 11:09:51;;;;;;;11.32;2.13;;;;;;;19.35;70.33;102022.47;4970732;28;20418;-70
2023/05/19 11:12:21;;;;;;;9.18;2.03;;;;;;;19.32;67.42;102026.22;4972427;28;20087;-70
2023/05/19 11:14:54;;;;;;;7.45;3.03;;;;;;;19.12;63.91;102022.75;4967205;28;20050;-69
2023/05/19 11:17:24;;;;;;;7.35;2.05;;;;;;;19.20;67.29;102017.69;4971319;28;20047;-68
2023/05/19 11:19:55;;;;;;;13.70;2.30;;;;;;;19.29;64.25;102024.28;4967248;28;20057;-72
2023/05/19 11:22:24;;;;;;;14.95;2.20;;;;;;;19.46;66.04;102013.72;4971638;28;20086;-71
2023/05/19 11:24:53;;;;;;;9.40;2.53;;;;;;;19.62;64.75;102013.66;4970245;28;20047;-71
2023/05/19 11:27:20;;;;;;;10.57;2.58;;;;;;;19.78;61.30;102005.88;4970885;28;20105;-69